sensor_id;sensor_type;location;lat;lon;timestamp;P1;durP1;ratioP1;P2;durP2;ratioP2
69951;SDS011;60406;48.408;13.392;2023-04-25T00:01:03;12.18;;;3.60;;
69951;SDS011;60406;48.408;13.392;2023-04-25T00:06:04;9.50;;;3.67;;
69951;SDS011;60406;48.408;13.392;2023-04-25T00:11:05;6.22;;;3.65;;
69951;SDS011;60406;48.408;13.392;2023-04-25T00:16:06;6.78;;;3.00;;
69951;SDS011;60406;48.408;13.392;2023-04-25T00:21:07;6.30;;;3.20;;
69951;SDS011;60406;48.408;13.392;2023-04-25T00:26:08;3.95;;;2.65;;
69951;SDS011;60406;48.408;13.392;2023-04-25T00:31:09;2.58;;;2.30;;
69951;SDS011;60406;48.408;13.392;2023-04-25T00:36:10;6.45;;;3.00;;
69951;SDS011;60406;48.408;13.392;2023-04-25T00:41:11;5.60;;;2.97;;
69951;SDS011;60406;48.408;13.392;2023-04-25T00:46:12;5.68;;;2.83;;
69951;SDS011;60406;48.408;13.392;2023-04-25T00:51:13;3.85;;;3.10;;
69951;SDS011;60406;48.408;13.392;2023-04-25T01:01:18;4.07;;;2.80;;
69951;SDS011;60406;48.408;13.392;2023-04-25T01:06:19;5.97;;;3.28;;
69951;SDS011;60406;48.408;13.392;2023-04-25T01:11:19;17.88;;;3.47;;
69951;SDS011;60406;48.408;13.392;2023-04-25T01:16:20;4.15;;;2.80;;
69951;SDS011;60406;48.408;13.392;2023-04-25T01:21:21;3.78;;;3.47;;
69951;SDS011;60406;48.408;13.392;2023-04-25T01:26:22;3.65;;;3.33;;
69951;SDS011;60406;48.408;13.392;2023-04-25T01:31:23;3.88;;;3.47;;
69951;SDS011;60406;48.408;13.392;2023-04-25T01:36:24;5.20;;;3.50;;
69951;SDS011;60406;48.408;13.392;2023-04-25T01:41:25;7.72;;;3.33;;
69951;SDS011;60406;48.408;13.392;2023-04-25T01:46:26;5.40;;;3.28;;
69951;SDS011;60406;48.408;13.392;2023-04-25T01:51:27;6.68;;;3.70;;
69951;SDS011;60406;48.408;13.392;2023-04-25T01:56:32;3.92;;;2.90;;
69951;SDS011;60406;48.408;13.392;2023-04-25T02:01:33;6.80;;;3.63;;
69951;SDS011;60406;48.408;13.392;2023-04-25T02:06:34;4.47;;;3.28;;
69951;SDS011;60406;48.408;13.392;2023-04-25T02:11:35;5.35;;;3.03;;
69951;SDS011;60406;48.408;13.392;2023-04-25T02:16:35;4.32;;;3.10;;
69951;SDS011;60406;48.408;13.392;2023-04-25T02:21:36;4.80;;;3.63;;
69951;SDS011;60406;48.408;13.392;2023-04-25T02:26:37;8.50;;;3.30;;
69951;SDS011;60406;48.408;13.392;2023-04-25T02:31:38;7.50;;;3.65;;
69951;SDS011;60406;48.408;13.392;2023-04-25T02:36:39;3.88;;;3.38;;
69951;SDS011;60406;48.408;13.392;2023-04-25T02:41:40;4.55;;;3.33;;
69951;SDS011;60406;48.408;13.392;2023-04-25T02:46:41;4.68;;;3.58;;
69951;SDS011;60406;48.408;13.392;2023-04-25T02:51:42;9.25;;;4.22;;
69951;SDS011;60406;48.408;13.392;2023-04-25T02:56:42;4.88;;;3.60;;
69951;SDS011;60406;48.408;13.392;2023-04-25T03:01:43;8.80;;;4.43;;
69951;SDS011;60406;48.408;13.392;2023-04-25T03:06:44;5.65;;;3.90;;
69951;SDS011;60406;48.408;13.392;2023-04-25T03:11:45;9.50;;;4.53;;
69951;SDS011;60406;48.408;13.392;2023-04-25T03:16:46;10.40;;;4.13;;
69951;SDS011;60406;48.408;13.392;2023-04-25T03:21:47;6.10;;;4.35;;
69951;SDS011;60406;48.408;13.392;2023-04-25T03:26:48;7.28;;;4.10;;
69951;SDS011;60406;48.408;13.392;2023-04-25T03:31:49;7.82;;;4.75;;
69951;SDS011;60406;48.408;13.392;2023-04-25T03:36:50;4.93;;;4.13;;
69951;SDS011;60406;48.408;13.392;2023-04-25T03:41:51;6.03;;;5.38;;
69951;SDS011;60406;48.408;13.392;2023-04-25T03:46:51;8.60;;;6.38;;
69951;SDS011;60406;48.408;13.392;2023-04-25T03:51:52;9.82;;;7.05;;
69951;SDS011;60406;48.408;13.392;2023-04-25T03:56:53;8.02;;;3.97;;
69951;SDS011;60406;48.408;13.392;2023-04-25T04:01:54;6.13;;;4.28;;
69951;SDS011;60406;48.408;13.392;2023-04-25T04:06:55;5.70;;;5.10;;
69951;SDS011;60406;48.408;13.392;2023-04-25T04:11:56;5.95;;;4.43;;
69951;SDS011;60406;48.408;13.392;2023-04-25T04:16:57;6.72;;;5.03;;
69951;SDS011;60406;48.408;13.392;2023-04-25T04:21:58;8.10;;;4.30;;
69951;SDS011;60406;48.408;13.392;2023-04-25T04:26:58;8.13;;;4.47;;
69951;SDS011;60406;48.408;13.392;2023-04-25T04:31:59;5.50;;;4.18;;
69951;SDS011;60406;48.408;13.392;2023-04-25T04:37:00;7.95;;;4.28;;
69951;SDS011;60406;48.408;13.392;2023-04-25T04:42:01;6.97;;;4.50;;
69951;SDS011;60406;48.408;13.392;2023-04-25T04:47:03;5.30;;;4.03;;
69951;SDS011;60406;48.408;13.392;2023-04-25T04:52:03;7.38;;;4.30;;
69951;SDS011;60406;48.408;13.392;2023-04-25T04:57:04;6.28;;;4.18;;
69951;SDS011;60406;48.408;13.392;2023-04-25T05:02:05;8.27;;;3.85;;
69951;SDS011;60406;48.408;13.392;2023-04-25T05:07:06;5.55;;;4.15;;
69951;SDS011;60406;48.408;13.392;2023-04-25T05:12:07;8.45;;;5.07;;
69951;SDS011;60406;48.408;13.392;2023-04-25T05:17:08;9.48;;;6.47;;
69951;SDS011;60406;48.408;13.392;2023-04-25T05:22:08;9.68;;;6.88;;
69951;SDS011;60406;48.408;13.392;2023-04-25T05:27:10;7.88;;;5.63;;
69951;SDS011;60406;48.408;13.392;2023-04-25T05:32:10;7.07;;;5.97;;
69951;SDS011;60406;48.408;13.392;2023-04-25T05:37:11;11.52;;;5.85;;
69951;SDS011;60406;48.408;13.392;2023-04-25T05:42:12;9.48;;;5.13;;
69951;SDS011;60406;48.408;13.392;2023-04-25T05:47:13;5.20;;;4.63;;
69951;SDS011;60406;48.408;13.392;2023-04-25T05:52:14;6.25;;;4.22;;
69951;SDS011;60406;48.408;13.392;2023-04-25T05:57:33;4.45;;;4.05;;
69951;SDS011;60406;48.408;13.392;2023-04-25T06:02:34;7.28;;;4.10;;
69951;SDS011;60406;48.408;13.392;2023-04-25T06:07:35;4.93;;;3.92;;
69951;SDS011;60406;48.408;13.392;2023-04-25T06:12:35;4.70;;;3.80;;
69951;SDS011;60406;48.408;13.392;2023-04-25T06:17:36;6.88;;;4.50;;
69951;SDS011;60406;48.408;13.392;2023-04-25T06:22:37;7.72;;;4.82;;
69951;SDS011;60406;48.408;13.392;2023-04-25T06:27:38;17.80;;;9.65;;
69951;SDS011;60406;48.408;13.392;2023-04-25T06:32:39;9.05;;;5.53;;
69951;SDS011;60406;48.408;13.392;2023-04-25T06:37:40;8.98;;;4.60;;
69951;SDS011;60406;48.408;13.392;2023-04-25T06:42:41;8.55;;;4.55;;
69951;SDS011;60406;48.408;13.392;2023-04-25T06:47:41;5.35;;;4.18;;
69951;SDS011;60406;48.408;13.392;2023-04-25T06:52:42;5.97;;;4.47;;
69951;SDS011;60406;48.408;13.392;2023-04-25T06:57:43;10.20;;;4.25;;
69951;SDS011;60406;48.408;13.392;2023-04-25T07:02:44;7.60;;;4.53;;
69951;SDS011;60406;48.408;13.392;2023-04-25T07:07:45;7.20;;;4.57;;
69951;SDS011;60406;48.408;13.392;2023-04-25T07:12:46;9.27;;;4.22;;
69951;SDS011;60406;48.408;13.392;2023-04-25T07:17:46;10.15;;;4.10;;
69951;SDS011;60406;48.408;13.392;2023-04-25T07:22:47;6.72;;;4.00;;
69951;SDS011;60406;48.408;13.392;2023-04-25T07:27:48;6.15;;;4.38;;
69951;SDS011;60406;48.408;13.392;2023-04-25T07:32:49;4.38;;;3.97;;
69951;SDS011;60406;48.408;13.392;2023-04-25T07:37:50;8.18;;;4.25;;
69951;SDS011;60406;48.408;13.392;2023-04-25T07:42:51;6.40;;;4.35;;
69951;SDS011;60406;48.408;13.392;2023-04-25T07:47:52;9.70;;;4.00;;
69951;SDS011;60406;48.408;13.392;2023-04-25T07:52:53;5.47;;;3.53;;
69951;SDS011;60406;48.408;13.392;2023-04-25T07:57:54;5.68;;;4.13;;
69951;SDS011;60406;48.408;13.392;2023-04-25T08:02:55;7.68;;;3.67;;
69951;SDS011;60406;48.408;13.392;2023-04-25T08:07:55;8.32;;;3.22;;
69951;SDS011;60406;48.408;13.392;2023-04-25T08:12:56;4.38;;;3.17;;
69951;SDS011;60406;48.408;13.392;2023-04-25T08:17:57;6.22;;;3.65;;
69951;SDS011;60406;48.408;13.392;2023-04-25T08:22:58;4.13;;;2.83;;
69951;SDS011;60406;48.408;13.392;2023-04-25T08:27:59;7.18;;;3.50;;
69951;SDS011;60406;48.408;13.392;2023-04-25T08:33:00;6.05;;;3.13;;
69951;SDS011;60406;48.408;13.392;2023-04-25T08:38:01;6.53;;;3.60;;
69951;SDS011;60406;48.408;13.392;2023-04-25T08:43:02;6.05;;;3.08;;
69951;SDS011;60406;48.408;13.392;2023-04-25T08:48:04;6.63;;;3.17;;
69951;SDS011;60406;48.408;13.392;2023-04-25T08:53:06;3.85;;;2.92;;
69951;SDS011;60406;48.408;13.392;2023-04-25T08:58:09;5.28;;;4.75;;
69951;SDS011;60406;48.408;13.392;2023-04-25T09:03:11;4.65;;;3.20;;
69951;SDS011;60406;48.408;13.392;2023-04-25T09:08:11;5.93;;;3.67;;
69951;SDS011;60406;48.408;13.392;2023-04-25T09:13:13;3.85;;;2.55;;
69951;SDS011;60406;48.408;13.392;2023-04-25T09:18:21;6.80;;;3.15;;
69951;SDS011;60406;48.408;13.392;2023-04-25T09:23:46;5.65;;;3.45;;
69951;SDS011;60406;48.408;13.392;2023-04-25T09:28:47;6.15;;;3.33;;
69951;SDS011;60406;48.408;13.392;2023-04-25T09:33:48;3.33;;;2.97;;
69951;SDS011;60406;48.408;13.392;2023-04-25T09:38:49;2.72;;;1.77;;
69951;SDS011;60406;48.408;13.392;2023-04-25T09:43:50;4.00;;;2.10;;
69951;SDS011;60406;48.408;13.392;2023-04-25T09:48:51;1.85;;;1.48;;
69951;SDS011;60406;48.408;13.392;2023-04-25T09:53:52;1.77;;;1.30;;
69951;SDS011;60406;48.408;13.392;2023-04-25T09:58:53;2.17;;;1.35;;
69951;SDS011;60406;48.408;13.392;2023-04-25T10:03:54;3.45;;;2.40;;
69951;SDS011;60406;48.408;13.392;2023-04-25T10:08:56;4.65;;;2.08;;
69951;SDS011;60406;48.408;13.392;2023-04-25T10:13:58;7.13;;;2.63;;
69951;SDS011;60406;48.408;13.392;2023-04-25T10:19:00;7.03;;;2.42;;
69951;SDS011;60406;48.408;13.392;2023-04-25T10:24:01;6.80;;;2.28;;
69951;SDS011;60406;48.408;13.392;2023-04-25T10:29:03;4.30;;;1.77;;
69951;SDS011;60406;48.408;13.392;2023-04-25T10:34:04;3.35;;;1.60;;
69951;SDS011;60406;48.408;13.392;2023-04-25T10:39:05;2.00;;;1.63;;
69951;SDS011;60406;48.408;13.392;2023-04-25T10:44:06;5.18;;;2.55;;
69951;SDS011;60406;48.408;13.392;2023-04-25T10:49:08;1.95;;;1.73;;
69951;SDS011;60406;48.408;13.392;2023-04-25T10:54:08;6.45;;;2.80;;
69951;SDS011;60406;48.408;13.392;2023-04-25T10:59:16;7.45;;;2.40;;
69951;SDS011;60406;48.408;13.392;2023-04-25T11:04:25;4.22;;;2.78;;
69951;SDS011;60406;48.408;13.392;2023-04-25T11:09:28;4.15;;;2.10;;
69951;SDS011;60406;48.408;13.392;2023-04-25T11:14:29;3.28;;;2.30;;
69951;SDS011;60406;48.408;13.392;2023-04-25T11:19:30;3.70;;;2.50;;
69951;SDS011;60406;48.408;13.392;2023-04-25T11:24:33;3.70;;;1.48;;
69951;SDS011;60406;48.408;13.392;2023-04-25T11:29:34;1.20;;;1.10;;
69951;SDS011;60406;48.408;13.392;2023-04-25T11:34:35;6.05;;;1.70;;
69951;SDS011;60406;48.408;13.392;2023-04-25T11:39:36;4.53;;;2.10;;
69951;SDS011;60406;48.408;13.392;2023-04-25T11:44:38;9.15;;;2.55;;
69951;SDS011;60406;48.408;13.392;2023-04-25T11:49:39;5.32;;;3.03;;
69951;SDS011;60406;48.408;13.392;2023-04-25T11:54:40;3.53;;;2.35;;
69951;SDS011;60406;48.408;13.392;2023-04-25T11:59:41;5.30;;;3.35;;
69951;SDS011;60406;48.408;13.392;2023-04-25T12:04:42;3.92;;;3.42;;
69951;SDS011;60406;48.408;13.392;2023-04-25T12:09:42;5.55;;;4.57;;
69951;SDS011;60406;48.408;13.392;2023-04-25T12:14:45;3.90;;;2.92;;
69951;SDS011;60406;48.408;13.392;2023-04-25T12:19:47;3.78;;;3.42;;
69951;SDS011;60406;48.408;13.392;2023-04-25T12:24:48;3.17;;;2.88;;
69951;SDS011;60406;48.408;13.392;2023-04-25T12:29:55;4.43;;;3.38;;
69951;SDS011;60406;48.408;13.392;2023-04-25T12:34:56;3.35;;;3.05;;
69951;SDS011;60406;48.408;13.392;2023-04-25T12:39:57;2.92;;;2.40;;
69951;SDS011;60406;48.408;13.392;2023-04-25T12:44:58;5.13;;;3.10;;
69951;SDS011;60406;48.408;13.392;2023-04-25T12:49:59;1.90;;;1.80;;
69951;SDS011;60406;48.408;13.392;2023-04-25T12:55:00;1.30;;;1.20;;
69951;SDS011;60406;48.408;13.392;2023-04-25T13:00:01;1.50;;;1.40;;
69951;SDS011;60406;48.408;13.392;2023-04-25T13:05:02;2.90;;;1.30;;
69951;SDS011;60406;48.408;13.392;2023-04-25T13:10:02;3.92;;;1.73;;
69951;SDS011;60406;48.408;13.392;2023-04-25T13:15:04;4.35;;;2.05;;
69951;SDS011;60406;48.408;13.392;2023-04-25T13:20:06;8.00;;;2.63;;
69951;SDS011;60406;48.408;13.392;2023-04-25T13:25:07;3.40;;;3.00;;
69951;SDS011;60406;48.408;13.392;2023-04-25T13:30:08;3.78;;;3.28;;
69951;SDS011;60406;48.408;13.392;2023-04-25T13:35:10;6.07;;;3.92;;
69951;SDS011;60406;48.408;13.392;2023-04-25T13:40:12;4.55;;;3.00;;
69951;SDS011;60406;48.408;13.392;2023-04-25T13:45:13;5.97;;;3.75;;
69951;SDS011;60406;48.408;13.392;2023-04-25T13:50:14;4.28;;;3.10;;
69951;SDS011;60406;48.408;13.392;2023-04-25T13:55:15;2.53;;;1.88;;
69951;SDS011;60406;48.408;13.392;2023-04-25T14:00:16;2.95;;;1.80;;
69951;SDS011;60406;48.408;13.392;2023-04-25T14:05:17;2.28;;;1.67;;
69951;SDS011;60406;48.408;13.392;2023-04-25T14:10:18;2.13;;;1.88;;
69951;SDS011;60406;48.408;13.392;2023-04-25T14:15:19;2.63;;;2.03;;
69951;SDS011;60406;48.408;13.392;2023-04-25T14:20:19;2.33;;;0.98;;
69951;SDS011;60406;48.408;13.392;2023-04-25T14:25:20;1.13;;;1.00;;
69951;SDS011;60406;48.408;13.392;2023-04-25T14:30:21;2.83;;;1.80;;
69951;SDS011;60406;48.408;13.392;2023-04-25T14:35:22;3.55;;;3.13;;
69951;SDS011;60406;48.408;13.392;2023-04-25T14:40:23;3.55;;;3.25;;
69951;SDS011;60406;48.408;13.392;2023-04-25T14:45:24;4.05;;;2.83;;
69951;SDS011;60406;48.408;13.392;2023-04-25T14:50:25;2.17;;;2.03;;
69951;SDS011;60406;48.408;13.392;2023-04-25T14:55:26;4.57;;;2.47;;
69951;SDS011;60406;48.408;13.392;2023-04-25T15:00:27;2.05;;;1.85;;
69951;SDS011;60406;48.408;13.392;2023-04-25T15:05:28;3.38;;;2.30;;
69951;SDS011;60406;48.408;13.392;2023-04-25T15:10:29;6.82;;;4.00;;
69951;SDS011;60406;48.408;13.392;2023-04-25T15:15:29;2.92;;;2.47;;
69951;SDS011;60406;48.408;13.392;2023-04-25T15:20:30;3.67;;;3.17;;
69951;SDS011;60406;48.408;13.392;2023-04-25T15:25:31;3.30;;;2.50;;
69951;SDS011;60406;48.408;13.392;2023-04-25T15:30:32;2.65;;;2.45;;
69951;SDS011;60406;48.408;13.392;2023-04-25T15:35:33;9.20;;;7.13;;
69951;SDS011;60406;48.408;13.392;2023-04-25T15:40:34;4.93;;;4.15;;
69951;SDS011;60406;48.408;13.392;2023-04-25T15:45:35;6.47;;;3.03;;
69951;SDS011;60406;48.408;13.392;2023-04-25T15:50:35;4.22;;;3.33;;
69951;SDS011;60406;48.408;13.392;2023-04-25T15:55:36;4.45;;;3.55;;
69951;SDS011;60406;48.408;13.392;2023-04-25T16:00:37;3.45;;;3.15;;
69951;SDS011;60406;48.408;13.392;2023-04-25T16:05:38;2.50;;;2.30;;
69951;SDS011;60406;48.408;13.392;2023-04-25T16:10:39;3.80;;;3.25;;
69951;SDS011;60406;48.408;13.392;2023-04-25T16:15:40;4.88;;;2.40;;
69951;SDS011;60406;48.408;13.392;2023-04-25T16:20:41;3.65;;;2.80;;
69951;SDS011;60406;48.408;13.392;2023-04-25T16:25:42;5.75;;;3.47;;
69951;SDS011;60406;48.408;13.392;2023-04-25T16:30:43;4.90;;;3.40;;
69951;SDS011;60406;48.408;13.392;2023-04-25T16:35:43;5.25;;;4.75;;
69951;SDS011;60406;48.408;13.392;2023-04-25T16:40:44;4.78;;;3.03;;
69951;SDS011;60406;48.408;13.392;2023-04-25T16:45:45;3.67;;;2.83;;
69951;SDS011;60406;48.408;13.392;2023-04-25T16:50:46;5.25;;;4.10;;
69951;SDS011;60406;48.408;13.392;2023-04-25T16:55:47;5.82;;;4.18;;
69951;SDS011;60406;48.408;13.392;2023-04-25T17:00:48;6.15;;;3.90;;
69951;SDS011;60406;48.408;13.392;2023-04-25T17:05:49;5.25;;;4.05;;
69951;SDS011;60406;48.408;13.392;2023-04-25T17:10:50;6.60;;;4.43;;
69951;SDS011;60406;48.408;13.392;2023-04-25T17:15:50;4.78;;;3.17;;
69951;SDS011;60406;48.408;13.392;2023-04-25T17:20:51;4.53;;;4.13;;
69951;SDS011;60406;48.408;13.392;2023-04-25T17:25:52;4.60;;;3.72;;
69951;SDS011;60406;48.408;13.392;2023-04-25T17:30:53;6.25;;;3.97;;
69951;SDS011;60406;48.408;13.392;2023-04-25T17:35:54;6.78;;;4.15;;
69951;SDS011;60406;48.408;13.392;2023-04-25T17:40:55;7.22;;;4.07;;
69951;SDS011;60406;48.408;13.392;2023-04-25T17:45:56;5.03;;;3.90;;
69951;SDS011;60406;48.408;13.392;2023-04-25T17:50:57;7.00;;;4.38;;
69951;SDS011;60406;48.408;13.392;2023-04-25T17:55:58;6.65;;;4.97;;
69951;SDS011;60406;48.408;13.392;2023-04-25T18:00:58;6.45;;;4.95;;
69951;SDS011;60406;48.408;13.392;2023-04-25T18:05:59;5.93;;;3.33;;
69951;SDS011;60406;48.408;13.392;2023-04-25T18:11:00;4.45;;;3.60;;
69951;SDS011;60406;48.408;13.392;2023-04-25T18:16:01;8.70;;;5.10;;
69951;SDS011;60406;48.408;13.392;2023-04-25T18:21:02;6.82;;;5.57;;
69951;SDS011;60406;48.408;13.392;2023-04-25T18:26:03;11.93;;;10.68;;
69951;SDS011;60406;48.408;13.392;2023-04-25T18:31:04;6.10;;;4.97;;
69951;SDS011;60406;48.408;13.392;2023-04-25T18:36:05;6.72;;;5.70;;
69951;SDS011;60406;48.408;13.392;2023-04-25T18:41:06;6.53;;;5.82;;
69951;SDS011;60406;48.408;13.392;2023-04-25T18:46:07;6.75;;;6.05;;
69951;SDS011;60406;48.408;13.392;2023-04-25T18:51:08;8.35;;;6.10;;
69951;SDS011;60406;48.408;13.392;2023-04-25T18:56:09;6.65;;;5.63;;
69951;SDS011;60406;48.408;13.392;2023-04-25T19:01:10;8.98;;;6.45;;
69951;SDS011;60406;48.408;13.392;2023-04-25T19:06:10;10.07;;;6.90;;
69951;SDS011;60406;48.408;13.392;2023-04-25T19:11:11;6.88;;;6.18;;
69951;SDS011;60406;48.408;13.392;2023-04-25T19:16:13;7.10;;;6.03;;
69951;SDS011;60406;48.408;13.392;2023-04-25T19:21:14;8.18;;;6.50;;
69951;SDS011;60406;48.408;13.392;2023-04-25T19:26:14;6.88;;;6.15;;
69951;SDS011;60406;48.408;13.392;2023-04-25T19:31:15;6.85;;;5.38;;
69951;SDS011;60406;48.408;13.392;2023-04-25T19:36:16;16.73;;;11.32;;
69951;SDS011;60406;48.408;13.392;2023-04-25T19:41:17;9.10;;;6.97;;
69951;SDS011;60406;48.408;13.392;2023-04-25T19:46:18;12.15;;;9.65;;
69951;SDS011;60406;48.408;13.392;2023-04-25T19:51:19;6.07;;;5.43;;
69951;SDS011;60406;48.408;13.392;2023-04-25T19:56:20;7.53;;;6.20;;
69951;SDS011;60406;48.408;13.392;2023-04-25T20:01:21;7.15;;;5.72;;
69951;SDS011;60406;48.408;13.392;2023-04-25T20:06:22;7.97;;;6.03;;
69951;SDS011;60406;48.408;13.392;2023-04-25T20:11:23;8.55;;;6.45;;
69951;SDS011;60406;48.408;13.392;2023-04-25T20:16:24;7.95;;;6.15;;
69951;SDS011;60406;48.408;13.392;2023-04-25T20:21:25;8.98;;;6.60;;
69951;SDS011;60406;48.408;13.392;2023-04-25T20:26:26;14.05;;;10.27;;
69951;SDS011;60406;48.408;13.392;2023-04-25T20:31:28;12.75;;;10.38;;
69951;SDS011;60406;48.408;13.392;2023-04-25T20:36:29;9.73;;;7.65;;
69951;SDS011;60406;48.408;13.392;2023-04-25T20:41:30;8.35;;;6.35;;
69951;SDS011;60406;48.408;13.392;2023-04-25T20:46:31;10.88;;;7.40;;
69951;SDS011;60406;48.408;13.392;2023-04-25T20:51:32;11.15;;;8.57;;
69951;SDS011;60406;48.408;13.392;2023-04-25T20:56:34;9.70;;;7.25;;
69951;SDS011;60406;48.408;13.392;2023-04-25T21:01:35;9.40;;;7.25;;
69951;SDS011;60406;48.408;13.392;2023-04-25T21:06:35;10.48;;;8.20;;
69951;SDS011;60406;48.408;13.392;2023-04-25T21:11:36;10.15;;;7.45;;
69951;SDS011;60406;48.408;13.392;2023-04-25T21:16:37;12.05;;;7.70;;
69951;SDS011;60406;48.408;13.392;2023-04-25T21:21:38;12.40;;;9.07;;
69951;SDS011;60406;48.408;13.392;2023-04-25T21:26:39;11.15;;;9.27;;
69951;SDS011;60406;48.408;13.392;2023-04-25T21:31:40;13.60;;;8.55;;
69951;SDS011;60406;48.408;13.392;2023-04-25T21:36:41;12.07;;;9.02;;
69951;SDS011;60406;48.408;13.392;2023-04-25T21:41:42;10.77;;;8.68;;
69951;SDS011;60406;48.408;13.392;2023-04-25T21:46:43;14.52;;;8.52;;
69951;SDS011;60406;48.408;13.392;2023-04-25T21:51:43;14.10;;;9.07;;
69951;SDS011;60406;48.408;13.392;2023-04-25T21:56:44;13.43;;;9.65;;
69951;SDS011;60406;48.408;13.392;2023-04-25T22:01:45;13.13;;;8.80;;
69951;SDS011;60406;48.408;13.392;2023-04-25T22:06:46;13.77;;;9.43;;
69951;SDS011;60406;48.408;13.392;2023-04-25T22:11:47;13.18;;;9.25;;
69951;SDS011;60406;48.408;13.392;2023-04-25T22:16:48;14.32;;;9.25;;
69951;SDS011;60406;48.408;13.392;2023-04-25T22:21:49;14.65;;;8.75;;
69951;SDS011;60406;48.408;13.392;2023-04-25T22:26:50;17.67;;;10.18;;
69951;SDS011;60406;48.408;13.392;2023-04-25T22:31:50;19.00;;;11.73;;
69951;SDS011;60406;48.408;13.392;2023-04-25T22:36:51;14.80;;;9.95;;
69951;SDS011;60406;48.408;13.392;2023-04-25T22:41:52;15.10;;;10.15;;
69951;SDS011;60406;48.408;13.392;2023-04-25T22:46:53;16.65;;;11.32;;
69951;SDS011;60406;48.408;13.392;2023-04-25T22:51:54;17.92;;;10.10;;
69951;SDS011;60406;48.408;13.392;2023-04-25T22:56:55;13.95;;;9.52;;
69951;SDS011;60406;48.408;13.392;2023-04-25T23:01:56;14.52;;;9.43;;
69951;SDS011;60406;48.408;13.392;2023-04-25T23:06:57;11.02;;;7.88;;
69951;SDS011;60406;48.408;13.392;2023-04-25T23:11:57;10.93;;;7.95;;
69951;SDS011;60406;48.408;13.392;2023-04-25T23:16:58;10.50;;;8.07;;
69951;SDS011;60406;48.408;13.392;2023-04-25T23:21:59;11.93;;;8.70;;
69951;SDS011;60406;48.408;13.392;2023-04-25T23:27:00;17.83;;;8.15;;
69951;SDS011;60406;48.408;13.392;2023-04-25T23:32:01;12.35;;;7.40;;
69951;SDS011;60406;48.408;13.392;2023-04-25T23:37:02;9.93;;;7.30;;
69951;SDS011;60406;48.408;13.392;2023-04-25T23:42:03;9.63;;;7.05;;
69951;SDS011;60406;48.408;13.392;2023-04-25T23:47:04;9.65;;;7.38;;
69951;SDS011;60406;48.408;13.392;2023-04-25T23:52:05;12.25;;;7.78;;
69951;SDS011;60406;48.408;13.392;2023-04-25T23:57:05;9.43;;;7.32;;
